Time;durP1;ratioP1;P1;durP2;ratioP2;P2;SDS_P1;SDS_P2;PMS_P1;PMS_P2;Temp;Humidity;BMP_temperature;BMP_pressure;BME280_temperature;BME280_humidity;BME280_pressure;Samples;Min_cycle;Max_cycle;Signal;HPM_P1;HPM_P2
2023/05/18 00:00:09;;;;;;;5.23;3.50;;;8.70;99.90;;;;;;5094589;28;20200;-67
2023/05/18 00:02:36;;;;;;;6.13;3.50;;;8.80;99.90;;;;;;5094491;28;20208;-67
2023/05/18 00:05:03;;;;;;;7.80;3.57;;;8.70;99.90;;;;;;5094331;28;20715;-66
2023/05/18 00:07:32;;;;;;;7.03;3.67;;;8.60;99.90;;;;;;5093634;28;20206;-66
2023/05/18 00:10:01;;;;;;;7.57;3.90;;;8.50;99.90;;;;;;5094001;28;20678;-68
2023/05/18 00:12:29;;;;;;;8.87;4.10;;;8.40;99.90;;;;;;5093909;28;20215;-68
2023/05/18 00:14:56;;;;;;;5.53;3.50;;;8.30;99.90;;;;;;5093394;28;20750;-67
2023/05/18 00:17:22;;;;;;;8.60;4.23;;;8.10;99.90;;;;;;5093746;28;20208;-66
2023/05/18 00:19:50;;;;;;;6.77;3.53;;;8.00;99.90;;;;;;5093599;28;20211;-66
2023/05/18 00:22:17;;;;;;;5.10;3.97;;;7.90;99.90;;;;;;5093461;28;20228;-67
2023/05/18 00:24:44;;;;;;;7.40;3.93;;;7.90;99.90;;;;;;5093696;28;20255;-67
2023/05/18 00:27:11;;;;;;;5.57;3.80;;;7.90;99.90;;;;;;5093349;28;20211;-66
2023/05/18 00:29:40;;;;;;;4.60;3.57;;;7.90;99.90;;;;;;5093747;28;20254;-68
2023/05/18 00:32:06;;;;;;;5.93;3.57;;;7.90;99.90;;;;;;5093332;28;20204;-68
2023/05/18 00:34:33;;;;;;;10.77;4.10;;;7.80;99.90;;;;;;5093224;28;20227;-66
2023/05/18 00:37:00;;;;;;;5.83;4.03;;;7.70;99.90;;;;;;5093652;28;20204;-64
2023/05/18 00:39:26;;;;;;;5.47;4.00;;;7.60;99.90;;;;;;5094169;28;20291;-68
2023/05/18 00:41:53;;;;;;;6.73;4.03;;;7.60;99.90;;;;;;5094338;28;20228;-68
2023/05/18 00:44:20;;;;;;;4.80;3.57;;;7.60;99.90;;;;;;5094111;28;20604;-68
2023/05/18 00:46:48;;;;;;;6.50;3.47;;;7.60;99.90;;;;;;5093933;28;20204;-67
2023/05/18 00:49:15;;;;;;;5.37;3.30;;;7.50;99.90;;;;;;5093293;28;20258;-67
2023/05/18 00:51:43;;;;;;;6.23;3.53;;;7.50;99.90;;;;;;5093680;28;20234;-66
2023/05/18 00:54:10;;;;;;;7.33;3.47;;;7.50;99.90;;;;;;5092831;28;20242;-68
2023/05/18 00:56:40;;;;;;;4.47;3.63;;;7.50;99.90;;;;;;5092880;28;20671;-67
2023/05/18 00:59:08;;;;;;;4.50;3.50;;;7.40;99.90;;;;;;5091956;28;20210;-68
2023/05/18 01:01:35;;;;;;;6.30;4.17;;;7.40;99.90;;;;;;5092694;28;20224;-67
2023/05/18 01:04:04;;;;;;;6.13;3.93;;;7.30;99.90;;;;;;5092367;28;20711;-66
2023/05/18 01:06:34;;;;;;;6.30;3.40;;;7.30;99.90;;;;;;5092843;28;20208;-66
2023/05/18 01:09:03;;;;;;;6.13;4.20;;;7.30;99.90;;;;;;5092590;28;20231;-66
2023/05/18 01:11:37;;;;;;;5.77;3.70;;;7.30;99.90;;;;;;5092669;28;20196;-68
2023/05/18 01:14:10;;;;;;;6.17;3.73;;;7.20;99.90;;;;;;5092637;28;20227;-66
2023/05/18 01:16:44;;;;;;;7.30;3.53;;;7.20;99.90;;;;;;5092457;28;20200;-66
2023/05/18 01:19:36;;;;;;;8.90;4.00;;;7.20;99.90;;;;;;5092619;28;20618;-67
2023/05/18 01:22:08;;;;;;;9.07;3.53;;;7.10;99.90;;;;;;5092447;28;20298;-66
2023/05/18 01:24:38;;;;;;;6.00;3.53;;;7.10;99.90;;;;;;5092507;28;20314;-68
2023/05/18 01:27:07;;;;;;;5.17;3.30;;;7.00;99.90;;;;;;5091965;28;20211;-66
2023/05/18 01:29:35;;;;;;;4.40;3.33;;;6.90;99.90;;;;;;5092456;28;20200;-68
2023/05/18 01:32:02;;;;;;;7.27;3.87;;;6.90;99.90;;;;;;5092429;28;20208;-67
2023/05/18 01:34:29;;;;;;;6.30;3.57;;;6.80;99.90;;;;;;5092374;28;20327;-67
2023/05/18 01:36:56;;;;;;;5.07;3.40;;;6.80;99.90;;;;;;5092352;28;20230;-66
2023/05/18 01:39:22;;;;;;;7.73;4.20;;;6.80;99.90;;;;;;5091988;28;20213;-68
2023/05/18 01:41:55;;;;;;;7.80;3.97;;;6.80;99.90;;;;;;5092144;28;20220;-66
2023/05/18 01:44:28;;;;;;;6.37;3.90;;;6.80;99.90;;;;;;5092086;28;20707;-68
2023/05/18 01:47:03;;;;;;;5.73;3.57;;;6.80;99.90;;;;;;5092423;28;20211;-66
2023/05/18 01:49:41;;;;;;;7.33;3.77;;;6.80;99.90;;;;;;5091921;28;20214;-67
2023/05/18 01:52:11;;;;;;;7.23;4.20;;;6.70;99.90;;;;;;5091938;28;20204;-67
2023/05/18 01:54:44;;;;;;;7.13;3.90;;;6.70;99.90;;;;;;5092424;28;20236;-66
2023/05/18 01:57:12;;;;;;;7.43;4.17;;;6.70;99.90;;;;;;5091668;28;20307;-66
2023/05/18 01:59:41;;;;;;;7.43;3.60;;;6.70;99.90;;;;;;5091882;28;20204;-68
2023/05/18 02:02:08;;;;;;;5.30;3.80;;;6.70;99.90;;;;;;5091922;28;20223;-66
2023/05/18 02:04:35;;;;;;;7.60;3.80;;;6.60;99.90;;;;;;5091709;28;20333;-66
2023/05/18 02:07:02;;;;;;;9.13;4.10;;;6.60;99.90;;;;;;5092064;28;20257;-66
2023/05/18 02:09:28;;;;;;;5.73;3.60;;;6.60;99.90;;;;;;5091698;28;20671;-66
2023/05/18 02:11:55;;;;;;;6.60;3.40;;;6.50;99.90;;;;;;5095849;28;20205;-66
2023/05/18 02:14:22;;;;;;;7.70;4.03;;;6.60;99.90;;;;;;5095872;28;20248;-68
2023/05/18 02:16:51;;;;;;;7.33;3.67;;;6.60;99.90;;;;;;5095793;28;20208;-68
2023/05/18 02:19:18;;;;;;;7.17;3.87;;;6.60;99.90;;;;;;5095525;28;20204;-68
2023/05/18 02:21:45;;;;;;;8.97;3.70;;;6.70;99.90;;;;;;5095851;28;20234;-65
2023/05/18 02:24:12;;;;;;;7.60;4.03;;;6.70;99.90;;;;;;5095647;28;20220;-66
2023/05/18 02:26:40;;;;;;;7.33;3.53;;;6.80;99.90;;;;;;5095629;28;20208;-68
2023/05/18 02:29:10;;;;;;;5.80;3.13;;;6.80;99.90;;;;;;5095317;28;20203;-67
2023/05/18 02:31:37;;;;;;;5.43;3.70;;;6.80;99.90;;;;;;5095520;28;20201;-66
2023/05/18 02:34:05;;;;;;;8.23;3.70;;;6.80;99.90;;;;;;5095834;28;20277;-66
2023/05/18 02:36:35;;;;;;;6.53;3.83;;;6.80;99.90;;;;;;5095565;28;20258;-67
2023/05/18 02:39:03;;;;;;;7.43;3.70;;;6.90;99.90;;;;;;5095331;28;20208;-67
2023/05/18 02:41:29;;;;;;;6.23;3.57;;;6.90;99.90;;;;;;5095186;28;20574;-66
2023/05/18 02:43:56;;;;;;;8.10;3.70;;;6.90;99.90;;;;;;5095158;28;20747;-66
2023/05/18 02:46:23;;;;;;;7.23;3.90;;;6.90;99.90;;;;;;5095131;28;20212;-66
2023/05/18 02:48:50;;;;;;;6.10;3.70;;;6.90;99.90;;;;;;5095299;28;20200;-65
2023/05/18 02:51:18;;;;;;;4.80;3.47;;;6.90;99.90;;;;;;5095225;28;20736;-67
2023/05/18 02:53:44;;;;;;;8.00;4.20;;;6.90;99.90;;;;;;5095088;28;20790;-65
2023/05/18 02:56:11;;;;;;;6.13;3.90;;;6.90;99.90;;;;;;5095394;28;20594;-65
2023/05/18 02:58:38;;;;;;;7.43;3.90;;;6.90;99.90;;;;;;5094748;28;20215;-65
2023/05/18 03:01:06;;;;;;;6.00;3.60;;;6.80;99.90;;;;;;5095182;28;20201;-67
2023/05/18 03:03:34;;;;;;;7.17;3.63;;;6.80;99.90;;;;;;5095130;28;20200;-67
2023/05/18 03:06:01;;;;;;;10.20;6.20;;;6.80;99.90;;;;;;5094949;28;20243;-66
2023/05/18 03:08:30;;;;;;;9.60;5.43;;;6.80;99.90;;;;;;5094992;28;20287;-65
2023/05/18 03:10:57;;;;;;;8.97;4.97;;;6.80;99.90;;;;;;5094633;28;20200;-66
2023/05/18 03:13:24;;;;;;;7.77;4.17;;;6.80;99.90;;;;;;5094676;28;20253;-67
2023/05/18 03:15:51;;;;;;;11.53;5.40;;;6.80;99.90;;;;;;5094832;28;20235;-66
2023/05/18 03:18:17;;;;;;;7.00;4.33;;;6.70;99.90;;;;;;5094458;28;20730;-67
2023/05/18 03:20:44;;;;;;;7.53;3.70;;;6.70;99.90;;;;;;5094771;28;20237;-66
2023/05/18 03:23:11;;;;;;;7.30;4.30;;;6.70;99.90;;;;;;5094085;28;20647;-66
2023/05/18 03:25:39;;;;;;;9.40;5.57;;;6.70;99.90;;;;;;5094511;28;20224;-65
2023/05/18 03:28:06;;;;;;;5.97;3.97;;;6.70;99.90;;;;;;5094646;28;20281;-67
2023/05/18 03:30:33;;;;;;;7.57;4.77;;;6.70;99.90;;;;;;5094643;28;20208;-67
2023/05/18 03:33:00;;;;;;;8.33;4.60;;;6.70;99.90;;;;;;5094830;28;20224;-66
2023/05/18 03:35:27;;;;;;;20.90;12.13;;;6.70;99.90;;;;;;5094547;28;20232;-66
2023/05/18 03:37:53;;;;;;;6.07;4.33;;;6.60;99.90;;;;;;5095252;28;20215;-65
2023/05/18 03:40:21;;;;;;;6.77;4.40;;;6.60;99.90;;;;;;5096190;28;20208;-66
2023/05/18 03:42:49;;;;;;;5.37;3.63;;;6.60;99.90;;;;;;5096721;28;20286;-66
2023/05/18 03:45:16;;;;;;;6.37;4.10;;;6.60;99.90;;;;;;5096118;28;20228;-65
2023/05/18 03:47:42;;;;;;;7.93;5.10;;;6.60;99.90;;;;;;5095985;28;20212;-68
2023/05/18 03:50:10;;;;;;;6.17;4.10;;;6.60;99.90;;;;;;5096173;28;20208;-66
2023/05/18 03:52:37;;;;;;;6.60;3.60;;;6.70;99.90;;;;;;5096415;28;20205;-66
2023/05/18 03:55:05;;;;;;;4.37;3.37;;;6.70;99.90;;;;;;5095230;28;20232;-67
2023/05/18 03:57:32;;;;;;;5.83;3.60;;;6.80;99.90;;;;;;5095292;28;20211;-66
2023/05/18 04:00:00;;;;;;;8.17;4.57;;;6.80;99.90;;;;;;5095546;28;20204;-68
2023/05/18 04:02:26;;;;;;;6.77;3.53;;;6.80;99.90;;;;;;5094853;28;20247;-66
2023/05/18 04:04:53;;;;;;;4.83;3.37;;;6.90;99.90;;;;;;5095380;28;20228;-67
2023/05/18 04:07:22;;;;;;;9.27;6.00;;;6.90;99.90;;;;;;5094874;28;20204;-68
2023/05/18 04:09:50;;;;;;;7.80;3.80;;;7.00;99.90;;;;;;5094986;28;20208;-66
2023/05/18 04:12:17;;;;;;;5.23;3.53;;;7.00;99.90;;;;;;5095290;28;20277;-66
2023/05/18 04:14:48;;;;;;;7.33;4.10;;;7.10;99.90;;;;;;5095160;28;20235;-66
2023/05/18 04:17:16;;;;;;;7.20;4.33;;;7.20;99.90;;;;;;5095023;28;20204;-65
2023/05/18 04:19:43;;;;;;;6.10;3.90;;;7.30;99.90;;;;;;5094348;28;20601;-66
2023/05/18 04:22:11;;;;;;;7.63;5.20;;;7.30;99.90;;;;;;5094480;28;20220;-65
2023/05/18 04:24:40;;;;;;;9.40;4.37;;;7.40;99.90;;;;;;5094548;28;20227;-64
2023/05/18 04:27:08;;;;;;;7.13;3.33;;;7.50;99.90;;;;;;5094462;28;20208;-66
2023/05/18 04:29:38;;;;;;;8.07;3.57;;;7.60;99.90;;;;;;5094259;28;20323;-66
2023/05/18 04:32:06;;;;;;;5.47;3.37;;;7.60;99.90;;;;;;5094626;28;20197;-67
2023/05/18 04:34:36;;;;;;;7.40;4.20;;;7.80;99.90;;;;;;5093458;28;20700;-66
2023/05/18 04:37:04;;;;;;;6.57;4.20;;;7.80;99.90;;;;;;5094539;28;20246;-66
2023/05/18 04:39:31;;;;;;;7.33;4.63;;;7.90;99.90;;;;;;5094154;28;20630;-67
2023/05/18 04:41:58;;;;;;;8.60;4.60;;;8.00;99.90;;;;;;5093963;28;20220;-65
2023/05/18 04:44:26;;;;;;;7.33;4.53;;;8.10;99.90;;;;;;5093019;28;20285;-66
2023/05/18 04:46:53;;;;;;;9.30;4.03;;;8.10;99.90;;;;;;5093830;28;20602;-66
2023/05/18 04:49:20;;;;;;;7.50;4.70;;;8.20;99.90;;;;;;5093513;28;20212;-68
2023/05/18 04:51:54;;;;;;;6.87;3.90;;;8.20;99.90;;;;;;5094000;28;20295;-66
2023/05/18 04:54:21;;;;;;;9.50;4.50;;;8.30;99.90;;;;;;5093774;28;20239;-65
2023/05/18 04:56:49;;;;;;;7.33;3.93;;;8.40;99.90;;;;;;5093764;28;20205;-67
2023/05/18 04:59:15;;;;;;;6.63;4.00;;;8.50;99.90;;;;;;5093903;28;20208;-65
2023/05/18 05:01:42;;;;;;;7.53;3.60;;;8.60;99.90;;;;;;5093442;28;20204;-67
2023/05/18 05:04:09;;;;;;;6.90;3.93;;;8.70;99.90;;;;;;5093576;28;20228;-67
2023/05/18 05:06:36;;;;;;;10.27;3.93;;;8.90;99.90;;;;;;5093707;28;20208;-65
2023/05/18 05:09:04;;;;;;;9.07;4.33;;;9.10;99.90;;;;;;5093301;28;20211;-66
2023/05/18 05:11:31;;;;;;;6.30;3.83;;;9.20;99.90;;;;;;5093364;28;20257;-67
2023/05/18 05:13:57;;;;;;;8.43;3.40;;;9.50;99.90;;;;;;5093317;28;20220;-65
2023/05/18 05:16:24;;;;;;;10.47;3.87;;;9.60;99.90;;;;;;5093955;28;20222;-67
2023/05/18 05:18:51;;;;;;;8.77;3.67;;;9.70;99.90;;;;;;5092848;28;20205;-65
2023/05/18 05:21:17;;;;;;;5.57;2.77;;;9.80;99.90;;;;;;5093245;28;20675;-65
2023/05/18 05:23:45;;;;;;;11.50;3.50;;;10.00;99.90;;;;;;5092309;28;20683;-66
2023/05/18 05:26:13;;;;;;;8.90;3.37;;;10.30;99.90;;;;;;5093160;28;20204;-64
2023/05/18 05:28:40;;;;;;;9.07;3.20;;;11.30;99.90;;;;;;5092055;28;20208;-64
2023/05/18 05:31:08;;;;;;;8.63;2.93;;;12.90;99.90;;;;;;5092526;28;20283;-65
2023/05/18 05:33:34;;;;;;;5.87;2.70;;;14.70;99.90;;;;;;5092341;28;20638;-65
2023/05/18 05:36:01;;;;;;;10.40;2.97;;;16.30;99.90;;;;;;5092011;28;20219;-65
2023/05/18 05:38:28;;;;;;;5.80;2.47;;;17.60;99.90;;;;;;5092232;28;20212;-66
2023/05/18 05:40:55;;;;;;;7.20;3.38;;;18.80;99.90;;;;;;5092882;28;20204;-67
2023/05/18 05:43:23;;;;;;;6.32;2.90;;;19.90;98.00;;;;;;5092347;28;20227;-67
2023/05/18 05:45:49;;;;;;;7.20;2.22;;;21.10;94.80;;;;;;5092214;28;20281;-68
2023/05/18 05:48:16;;;;;;;7.20;2.60;;;22.10;89.30;;;;;;5092287;28;20227;-68
2023/05/18 05:50:43;;;;;;;12.60;6.63;;;22.20;86.00;;;;;;5092522;28;20729;-67
2023/05/18 05:53:10;;;;;;;4.93;2.80;;;22.00;85.90;;;;;;5092169;28;20295;-67
2023/05/18 05:55:40;;;;;;;6.80;3.58;;;21.70;82.60;;;;;;5091722;28;20246;-66
2023/05/18 05:58:06;;;;;;;5.03;2.40;;;21.30;83.60;;;;;;5092239;28;20214;-67
2023/05/18 06:00:35;;;;;;;7.38;2.50;;;21.20;83.30;;;;;;5091848;28;20696;-67
2023/05/18 06:03:01;;;;;;;5.30;2.42;;;21.30;82.20;;;;;;5091888;28;20228;-69
2023/05/18 06:05:28;;;;;;;5.78;2.55;;;21.60;82.50;;;;;;5091803;28;20236;-67
2023/05/18 06:07:56;;;;;;;4.95;2.30;;;22.20;80.60;;;;;;5091564;28;20206;-67
2023/05/18 06:10:23;;;;;;;6.22;2.45;;;23.10;77.20;;;;;;5091794;28;20211;-66
2023/05/18 06:12:49;;;;;;;5.13;2.40;;;24.00;74.00;;;;;;5092070;28;20405;-67
2023/05/18 06:15:16;;;;;;;6.70;2.42;;;24.40;71.20;;;;;;5091913;28;20285;-67
2023/05/18 06:17:44;;;;;;;5.97;2.55;;;24.20;70.80;;;;;;5091477;28;20204;-66
2023/05/18 06:20:12;;;;;;;7.13;2.35;;;24.00;70.90;;;;;;5091694;28;20205;-67
2023/05/18 06:22:39;;;;;;;8.15;2.83;;;24.20;69.80;;;;;;5091588;28;20315;-66
2023/05/18 06:25:07;;;;;;;5.82;2.38;;;24.30;68.80;;;;;;5091603;28;20338;-67
2023/05/18 06:27:33;;;;;;;5.97;2.42;;;24.50;68.90;;;;;;5091838;28;20211;-67
2023/05/18 06:30:00;;;;;;;8.63;2.40;;;24.50;67.20;;;;;;5091829;28;20668;-67
2023/05/18 06:32:27;;;;;;;8.00;2.55;;;24.50;67.50;;;;;;5091483;28;20212;-67
2023/05/18 06:34:55;;;;;;;7.53;2.85;;;24.70;66.40;;;;;;5091539;28;20250;-66
2023/05/18 06:37:22;;;;;;;5.40;2.22;;;24.80;65.90;;;;;;5091445;28;20204;-67
2023/05/18 06:39:48;;;;;;;7.47;2.22;;;24.80;65.50;;;;;;5091461;28;20219;-68
2023/05/18 06:42:15;;;;;;;7.30;2.47;;;25.40;64.80;;;;;;5091205;28;20204;-66
2023/05/18 06:44:43;;;;;;;6.65;2.60;;;25.80;63.70;;;;;;5091618;28;20266;-66
2023/05/18 06:47:10;;;;;;;7.40;2.65;;;25.40;63.40;;;;;;5091489;28;20598;-66
2023/05/18 06:49:37;;;;;;;8.90;2.25;;;25.20;62.90;;;;;;5091255;28;20223;-66
2023/05/18 06:52:07;;;;;;;6.47;2.40;;;25.20;63.40;;;;;;5091877;28;20201;-68
2023/05/18 06:54:34;;;;;;;3.83;2.00;;;25.30;63.70;;;;;;5091032;28;20703;-67
2023/05/18 06:57:01;;;;;;;6.15;2.40;;;25.40;63.60;;;;;;5093093;28;20204;-67
2023/05/18 06:59:27;;;;;;;5.55;2.00;;;25.90;62.80;;;;;;5096637;28;20208;-67
2023/05/18 07:01:54;;;;;;;6.03;2.50;;;26.70;60.60;;;;;;5096947;28;20672;-69
2023/05/18 07:04:21;;;;;;;5.47;2.17;;;27.10;59.60;;;;;;5096658;28;20228;-67
2023/05/18 07:06:48;;;;;;;5.03;2.22;;;27.40;58.60;;;;;;5095962;28;20215;-67
2023/05/18 07:09:16;;;;;;;8.77;2.90;;;28.00;57.80;;;;;;5095736;28;20208;-66
2023/05/18 07:11:44;;;;;;;4.80;2.25;;;28.80;55.70;;;;;;5095690;28;20246;-67
2023/05/18 07:14:11;;;;;;;6.53;2.40;;;29.30;54.70;;;;;;5095075;28;20224;-67
2023/05/18 07:16:38;;;;;;;3.97;2.03;;;29.40;53.50;;;;;;5094887;28;20208;-69
2023/05/18 07:19:05;;;;;;;7.22;2.60;;;29.20;52.90;;;;;;5094964;28;20248;-67
2023/05/18 07:21:31;;;;;;;6.80;2.20;;;29.10;52.80;;;;;;5094648;28;20201;-68
2023/05/18 07:23:58;;;;;;;5.55;2.40;;;29.50;51.20;;;;;;5094494;28;20229;-67
2023/05/18 07:26:26;;;;;;;6.05;2.47;;;29.10;51.40;;;;;;5094662;28;20200;-66
2023/05/18 07:28:53;;;;;;;5.07;2.25;;;28.50;51.50;;;;;;5094296;28;20698;-67
2023/05/18 07:31:20;;;;;;;6.43;2.60;;;28.00;52.40;;;;;;5094475;28;20211;-67
2023/05/18 07:33:47;;;;;;;5.32;2.17;;;27.90;52.30;;;;;;5094284;28;20629;-66
2023/05/18 07:36:14;;;;;;;6.90;2.55;;;27.60;52.90;;;;;;5094752;28;20212;-67
2023/05/18 07:38:41;;;;;;;6.43;2.05;;;27.40;53.00;;;;;;5095161;28;20287;-67
2023/05/18 07:41:08;;;;;;;5.05;2.35;;;27.60;53.20;;;;;;5094813;28;20212;-68
2023/05/18 07:43:36;;;;;;;6.22;2.20;;;27.90;53.20;;;;;;5094810;28;20668;-67
2023/05/18 07:46:03;;;;;;;9.25;2.80;;;27.90;52.00;;;;;;5094682;28;20208;-66
2023/05/18 07:48:29;;;;;;;6.00;2.38;;;28.00;51.60;;;;;;5094548;28;20208;-66
2023/05/18 07:50:56;;;;;;;5.82;2.83;;;28.10;51.80;;;;;;5094456;28;20208;-66
2023/05/18 07:53:23;;;;;;;7.20;3.53;;;28.10;53.90;;;;;;5094116;28;20242;-67
2023/05/18 07:55:49;;;;;;;6.88;2.63;;;28.10;53.90;;;;;;5119313;22;20235;-66
2023/05/18 07:58:16;;;;;;;7.88;2.60;;;28.20;53.10;;;;;;5097868;28;20204;-64
2023/05/18 08:00:44;;;;;;;8.02;2.70;;;28.90;52.20;;;;;;5098310;28;20295;-63
2023/05/18 08:03:11;;;;;;;8.02;2.15;;;28.80;51.80;;;;;;5098086;28;20247;-62
2023/05/18 08:05:38;;;;;;;6.65;2.13;;;28.40;51.80;;;;;;5097722;28;20228;-62
2023/05/18 08:08:05;;;;;;;6.80;2.17;;;27.50;53.50;;;;;;5097159;28;20200;-62
2023/05/18 08:10:32;;;;;;;8.27;2.90;;;27.50;52.90;;;;;;5098236;28;20231;-63
2023/05/18 08:12:59;;;;;;;7.47;2.28;;;27.70;52.90;;;;;;5097439;28;20200;-63
2023/05/18 08:15:26;;;;;;;5.28;2.22;;;27.90;52.20;;;;;;5097053;28;20771;-60
2023/05/18 08:17:55;;;;;;;6.20;2.50;;;27.60;53.30;;;;;;5094515;28;20214;-60
2023/05/18 08:20:24;;;;;;;7.25;2.63;;;27.30;52.00;;;;;;5094949;28;20239;-60
2023/05/18 08:22:51;;;;;;;4.20;2.10;;;27.10;51.60;;;;;;5094521;28;20680;-60
2023/05/18 08:25:18;;;;;;;6.70;2.20;;;26.90;52.50;;;;;;5094900;28;20311;-61
2023/05/18 08:27:45;;;;;;;7.18;2.70;;;26.60;52.90;;;;;;5094968;28;20245;-60
2023/05/18 08:30:13;;;;;;;7.47;2.50;;;26.90;51.80;;;;;;5095317;28;20208;-61
2023/05/18 08:32:39;;;;;;;6.13;2.28;;;26.50;52.60;;;;;;5094830;28;20667;-61
2023/05/18 08:35:09;;;;;;;7.35;2.75;;;26.10;53.20;;;;;;5095241;28;20707;-61
2023/05/18 08:37:36;;;;;;;6.60;2.45;;;25.40;53.90;;;;;;5094598;28;20207;-61
2023/05/18 08:40:06;;;;;;;7.97;2.75;;;24.70;55.70;;;;;;5094119;28;20243;-61
2023/05/18 08:42:39;;;;;;;6.30;2.70;;;23.50;55.00;;;;;;5095027;28;20211;-60
2023/05/18 08:45:11;;;;;;;8.50;2.80;;;21.90;57.90;;;;;;5095254;28;20323;-60
2023/05/18 08:47:39;;;;;;;5.53;2.20;;;20.60;59.50;;;;;;5094649;28;20204;-60
2023/05/18 08:50:12;;;;;;;7.53;2.83;;;20.00;61.30;;;;;;5094660;28;20232;-60
2023/05/18 08:52:46;;;;;;;8.02;2.97;;;19.80;62.90;;;;;;5094808;28;20204;-60
2023/05/18 08:55:16;;;;;;;9.38;3.20;;;19.70;62.40;;;;;;5094720;28;20293;-61
2023/05/18 08:57:48;;;;;;;10.13;3.08;;;19.60;63.10;;;;;;5094334;28;20201;-59
2023/05/18 09:00:17;;;;;;;13.60;3.22;;;19.30;63.50;;;;;;5094817;28;20211;-61
2023/05/18 09:02:44;;;;;;;6.10;2.97;;;19.00;65.00;;;;;;5094170;28;20200;-60
2023/05/18 09:05:15;;;;;;;10.77;3.13;;;18.80;64.30;;;;;;5094264;28;20251;-59
2023/05/18 09:07:44;;;;;;;8.57;2.92;;;18.80;65.10;;;;;;5094702;28;20647;-60
2023/05/18 09:10:12;;;;;;;7.57;2.95;;;18.90;64.60;;;;;;5095051;28;20204;-60
2023/05/18 09:12:41;;;;;;;5.30;2.80;;;19.00;65.50;;;;;;5094637;28;20219;-60
2023/05/18 09:15:10;;;;;;;7.93;2.90;;;19.10;65.10;;;;;;5095772;28;20582;-59
2023/05/18 09:17:37;;;;;;;7.13;2.45;;;19.10;65.60;;;;;;5094315;28;20667;-60
2023/05/18 09:20:05;;;;;;;5.18;2.47;;;19.10;63.90;;;;;;5094763;28;20215;-61
2023/05/18 09:22:35;;;;;;;7.00;2.78;;;18.90;64.30;;;;;;5097021;28;20204;-63
2023/05/18 09:25:02;;;;;;;8.48;2.63;;;18.80;65.10;;;;;;5095096;28;20311;-57
2023/05/18 09:27:29;;;;;;;8.07;2.97;;;18.80;65.80;;;;;;5093264;28;20208;-58
2023/05/18 09:29:57;;;;;;;11.73;3.05;;;18.60;64.80;;;;;;5093116;28;20247;-59
2023/05/18 09:32:26;;;;;;;5.60;2.60;;;18.70;65.30;;;;;;5093341;28;20208;-58
2023/05/18 09:34:54;;;;;;;6.40;2.60;;;19.00;65.70;;;;;;5093424;28;20224;-57
2023/05/18 09:37:22;;;;;;;6.10;2.60;;;19.50;65.50;;;;;;5093093;28;20210;-58
2023/05/18 09:39:59;;;;;;;6.22;2.60;;;19.90;64.20;;;;;;5093091;28;20204;-58
2023/05/18 09:42:28;;;;;;;9.60;2.72;;;19.90;64.40;;;;;;5093078;28;20580;-58
2023/05/18 09:44:55;;;;;;;8.90;2.60;;;19.60;63.80;;;;;;5092793;28;20228;-59
2023/05/18 09:47:22;;;;;;;5.53;2.80;;;19.40;64.70;;;;;;5093395;28;20203;-59
2023/05/18 09:49:49;;;;;;;6.82;2.63;;;19.40;64.40;;;;;;5093122;28;20445;-58
2023/05/18 09:52:16;;;;;;;5.80;2.40;;;19.60;65.20;;;;;;5092757;28;20224;-58
2023/05/18 09:54:43;;;;;;;9.18;2.60;;;19.70;63.80;;;;;;5093196;28;20236;-58
2023/05/18 09:57:11;;;;;;;8.10;3.10;;;19.70;64.40;;;;;;5092928;28;20744;-58
2023/05/18 09:59:38;;;;;;;7.57;2.58;;;19.80;64.20;;;;;;5092465;28;20261;-58
2023/05/18 10:02:07;;;;;;;4.93;2.30;;;20.20;63.70;;;;;;5092751;28;20291;-58
2023/05/18 10:04:38;;;;;;;6.90;2.33;;;20.40;63.60;;;;;;5092616;28;20315;-58
2023/05/18 10:07:12;;;;;;;7.95;2.70;;;20.50;64.10;;;;;;5092667;28;20236;-58
2023/05/18 10:09:40;;;;;;;8.57;2.70;;;20.50;62.60;;;;;;5092609;28;20208;-58
2023/05/18 10:12:12;;;;;;;5.95;2.65;;;20.50;62.10;;;;;;5092543;28;20736;-58
2023/05/18 10:14:41;;;;;;;5.60;2.30;;;20.30;62.90;;;;;;5092496;28;20224;-58
2023/05/18 10:17:08;;;;;;;8.10;2.63;;;20.10;63.10;;;;;;5092574;28;20200;-58
2023/05/18 10:19:35;;;;;;;8.85;2.95;;;20.00;64.40;;;;;;5091889;28;20204;-58
2023/05/18 10:22:03;;;;;;;5.60;2.45;;;20.00;62.70;;;;;;5092077;28;20676;-58
2023/05/18 10:24:34;;;;;;;6.35;2.65;;;20.10;63.70;;;;;;5091888;28;20255;-58
2023/05/18 10:27:04;;;;;;;7.55;2.70;;;20.20;63.80;;;;;;5092278;28;20215;-58
2023/05/18 10:29:35;;;;;;;6.30;2.53;;;20.30;64.40;;;;;;5092128;28;20208;-58
2023/05/18 10:32:04;;;;;;;5.20;2.50;;;20.50;64.00;;;;;;5093035;28;20246;-57
2023/05/18 10:34:31;;;;;;;6.13;2.25;;;20.70;63.50;;;;;;5096032;28;20220;-57
2023/05/18 10:37:02;;;;;;;7.97;2.70;;;21.00;63.30;;;;;;5095946;28;20532;-57
2023/05/18 10:39:30;;;;;;;7.85;2.50;;;21.10;62.20;;;;;;5095526;28;20212;-58
2023/05/18 10:41:59;;;;;;;6.00;2.53;;;21.20;62.10;;;;;;5095494;28;20206;-58
2023/05/18 10:44:27;;;;;;;7.63;2.38;;;21.30;61.70;;;;;;5096154;28;20231;-58
2023/05/18 10:46:56;;;;;;;7.55;2.58;;;21.20;60.10;;;;;;5095966;28;20215;-58
2023/05/18 10:49:25;;;;;;;6.03;2.30;;;21.10;61.10;;;;;;5095585;28;20204;-58
2023/05/18 10:51:54;;;;;;;8.98;3.05;;;20.90;61.80;;;;;;5095394;28;20270;-58
2023/05/18 10:54:22;;;;;;;5.82;2.15;;;20.70;60.20;;;;;;5095465;28;20220;-58
2023/05/18 10:56:52;;;;;;;5.03;2.33;;;20.40;61.10;;;;;;5095944;28;20204;-58
2023/05/18 10:59:22;;;;;;;5.30;2.17;;;20.20;62.60;;;;;;5095231;28;20212;-59
2023/05/18 11:01:50;;;;;;;6.82;2.53;;;20.20;63.30;;;;;;5095749;28;20210;-59
2023/05/18 11:04:22;;;;;;;8.43;2.42;;;20.10;63.40;;;;;;5095427;28;20601;-59
2023/05/18 11:06:55;;;;;;;6.45;2.60;;;20.00;63.50;;;;;;5095905;28;20215;-59
2023/05/18 11:09:23;;;;;;;5.32;2.40;;;19.90;63.40;;;;;;5095913;28;20231;-58
2023/05/18 11:11:52;;;;;;;8.43;2.90;;;19.90;64.80;;;;;;5095482;28;20200;-59
2023/05/18 11:14:26;;;;;;;6.15;2.33;;;19.70;64.30;;;;;;5095200;28;20235;-59
2023/05/18 11:16:53;;;;;;;6.82;2.70;;;19.40;64.80;;;;;;5095515;28;20664;-59
2023/05/18 11:19:26;;;;;;;9.43;2.50;;;19.40;64.90;;;;;;5095083;28;20208;-59
2023/05/18 11:21:53;;;;;;;6.15;2.25;;;19.40;64.10;;;;;;5095213;28;20239;-60
2023/05/18 11:24:30;;;;;;;4.07;2.30;;;19.40;65.40;;;;;;5095494;28;20232;-59
2023/05/18 11:26:58;;;;;;;8.95;2.33;;;19.40;63.40;;;;;;5095794;28;20718;-59
2023/05/18 11:29:31;;;;;;;6.53;2.40;;;19.50;64.60;;;;;;5095762;28;20208;-59
2023/05/18 11:31:58;;;;;;;9.68;2.72;;;19.40;64.90;;;;;;5095978;28;20215;-58
2023/05/18 11:34:36;;;;;;;9.48;2.58;;;19.30;65.20;;;;;;5095900;28;20223;-58
2023/05/18 11:37:04;;;;;;;7.22;2.30;;;19.40;65.50;;;;;;5096697;28;20226;-58
2023/05/18 11:39:32;;;;;;;4.97;2.30;;;19.40;65.10;;;;;;5096557;28;20200;-58
2023/05/18 11:41:59;;;;;;;4.93;2.20;;;19.40;65.50;;;;;;5097025;28;20216;-59
2023/05/18 11:44:28;;;;;;;5.72;2.28;;;19.40;66.60;;;;;;5094752;28;20314;-58
2023/05/18 11:46:59;;;;;;;5.28;2.50;;;19.20;66.40;;;;;;5095133;28;20219;-59
2023/05/18 11:49:28;;;;;;;5.88;2.05;;;19.30;66.00;;;;;;5094483;28;20236;-58
2023/05/18 11:51:57;;;;;;;5.80;2.45;;;19.50;66.10;;;;;;5094506;28;20622;-58
2023/05/18 11:54:25;;;;;;;4.63;1.90;;;19.50;64.70;;;;;;5094466;28;20236;-58
2023/05/18 11:56:53;;;;;;;5.82;2.10;;;19.40;64.10;;;;;;5094732;28;20218;-59
2023/05/18 11:59:31;;;;;;;5.32;2.17;;;19.40;64.80;;;;;;5094479;28;20262;-59
2023/05/18 12:02:00;;;;;;;6.43;2.50;;;19.40;65.50;;;;;;5094637;28;20208;-58
2023/05/18 12:04:28;;;;;;;7.38;2.13;;;19.40;64.90;;;;;;5094344;28;20232;-58
2023/05/18 12:06:57;;;;;;;4.22;1.95;;;19.60;65.40;;;;;;5093886;28;20211;-58
2023/05/18 12:09:24;;;;;;;5.25;2.17;;;20.10;64.30;;;;;;5094040;28;20566;-58
2023/05/18 12:11:51;;;;;;;5.05;2.00;;;20.30;63.80;;;;;;5094291;28;20204;-58
2023/05/18 12:14:19;;;;;;;5.82;2.17;;;20.50;64.10;;;;;;5094010;28;20211;-58
2023/05/18 12:16:48;;;;;;;6.65;2.10;;;20.30;63.80;;;;;;5094028;28;20249;-58
2023/05/18 12:19:15;;;;;;;6.38;2.30;;;20.30;64.20;;;;;;5094058;28;20204;-58
2023/05/18 12:21:42;;;;;;;5.97;2.30;;;20.20;65.00;;;;;;5094281;28;20208;-58
2023/05/18 12:24:10;;;;;;;7.65;2.30;;;20.20;65.40;;;;;;5093499;28;20215;-58
2023/05/18 12:26:39;;;;;;;6.03;2.38;;;20.30;64.80;;;;;;5094133;28;20200;-58
2023/05/18 12:29:08;;;;;;;4.88;2.13;;;20.50;64.00;;;;;;5093720;28;20291;-58
2023/05/18 12:31:35;;;;;;;6.53;2.20;;;20.60;65.40;;;;;;5093683;28;20801;-58
2023/05/18 12:34:03;;;;;;;8.27;2.20;;;20.40;63.40;;;;;;5093792;28;20212;-58
2023/05/18 12:36:30;;;;;;;4.43;2.05;;;20.20;64.30;;;;;;5094098;28;20257;-59
2023/05/18 12:38:56;;;;;;;5.68;1.85;;;20.30;65.60;;;;;;5094164;28;20230;-59
2023/05/18 12:41:26;;;;;;;4.80;2.08;;;20.80;65.10;;;;;;5093864;28;20625;-58
2023/05/18 12:43:54;;;;;;;5.00;2.25;;;21.30;63.70;;;;;;5093655;28;20231;-58
2023/05/18 12:46:22;;;;;;;6.28;2.40;;;21.30;62.40;;;;;;5093369;28;20733;-58
2023/05/18 12:48:56;;;;;;;6.45;2.10;;;21.10;63.70;;;;;;5093772;28;20590;-59
2023/05/18 12:51:29;;;;;;;6.60;2.15;;;21.00;63.80;;;;;;5093958;28;20663;-58
2023/05/18 12:53:56;;;;;;;6.93;2.25;;;21.10;63.70;;;;;;5093691;28;20295;-58